sensor_id;sensor_type;location;lat;lon;timestamp;P1;durP1;ratioP1;P2;durP2;ratioP2
83895;SDS011;74045;42.812;74.638;2024-03-23T00:53:14;4.82;;;2.20;;
83895;SDS011;74045;42.812;74.638;2024-03-23T00:55:40;6.53;;;2.88;;
83895;SDS011;74045;42.812;74.638;2024-03-23T00:58:08;6.30;;;2.45;;
83895;SDS011;74045;42.812;74.638;2024-03-23T01:00:34;3.90;;;2.63;;
83895;SDS011;74045;42.812;74.638;2024-03-23T01:03:00;8.60;;;5.18;;
83895;SDS011;74045;42.812;74.638;2024-03-23T01:05:26;7.38;;;3.60;;
83895;SDS011;74045;42.812;74.638;2024-03-23T01:07:51;9.30;;;3.85;;
83895;SDS011;74045;42.812;74.638;2024-03-23T01:10:17;9.35;;;4.65;;
83895;SDS011;74045;42.812;74.638;2024-03-23T01:12:43;9.77;;;4.50;;
83895;SDS011;74045;42.812;74.638;2024-03-23T01:15:08;9.32;;;4.45;;
83895;SDS011;74045;42.812;74.638;2024-03-23T01:17:34;10.32;;;5.13;;
83895;SDS011;74045;42.812;74.638;2024-03-23T01:20:00;8.88;;;4.50;;
83895;SDS011;74045;42.812;74.638;2024-03-23T01:22:26;8.48;;;4.40;;
83895;SDS011;74045;42.812;74.638;2024-03-23T01:24:51;8.73;;;3.55;;
83895;SDS011;74045;42.812;74.638;2024-03-23T01:27:17;6.20;;;3.38;;
83895;SDS011;74045;42.812;74.638;2024-03-23T01:29:43;5.15;;;2.85;;
83895;SDS011;74045;42.812;74.638;2024-03-23T01:32:09;8.25;;;3.38;;
83895;SDS011;74045;42.812;74.638;2024-03-23T01:34:35;5.65;;;2.97;;
83895;SDS011;74045;42.812;74.638;2024-03-23T01:37:01;8.30;;;3.80;;
83895;SDS011;74045;42.812;74.638;2024-03-23T01:39:26;6.15;;;3.35;;
83895;SDS011;74045;42.812;74.638;2024-03-23T01:41:52;5.55;;;3.03;;
83895;SDS011;74045;42.812;74.638;2024-03-23T01:44:18;6.75;;;3.70;;
83895;SDS011;74045;42.812;74.638;2024-03-23T01:46:44;5.75;;;3.15;;
83895;SDS011;74045;42.812;74.638;2024-03-23T01:49:10;5.18;;;2.88;;
83895;SDS011;74045;42.812;74.638;2024-03-23T01:51:36;6.50;;;3.28;;
83895;SDS011;74045;42.812;74.638;2024-03-23T01:54:02;5.97;;;2.83;;
83895;SDS011;74045;42.812;74.638;2024-03-23T01:56:29;3.45;;;2.70;;
83895;SDS011;74045;42.812;74.638;2024-03-23T01:58:58;8.48;;;2.65;;
83895;SDS011;74045;42.812;74.638;2024-03-23T02:01:23;6.72;;;3.78;;
83895;SDS011;74045;42.812;74.638;2024-03-23T02:03:49;7.43;;;4.18;;
83895;SDS011;74045;42.812;74.638;2024-03-23T02:06:15;9.60;;;4.10;;
83895;SDS011;74045;42.812;74.638;2024-03-23T02:08:40;11.48;;;5.38;;
83895;SDS011;74045;42.812;74.638;2024-03-23T02:11:06;7.75;;;4.65;;
83895;SDS011;74045;42.812;74.638;2024-03-23T02:13:32;8.07;;;4.65;;
83895;SDS011;74045;42.812;74.638;2024-03-23T02:15:58;6.10;;;3.28;;
83895;SDS011;74045;42.812;74.638;2024-03-23T02:18:24;5.78;;;3.17;;
83895;SDS011;74045;42.812;74.638;2024-03-23T02:20:49;6.85;;;3.75;;
83895;SDS011;74045;42.812;74.638;2024-03-23T02:23:15;8.00;;;3.90;;
83895;SDS011;74045;42.812;74.638;2024-03-23T02:25:43;6.28;;;3.63;;
83895;SDS011;74045;42.812;74.638;2024-03-23T02:28:09;7.95;;;4.13;;
83895;SDS011;74045;42.812;74.638;2024-03-23T02:30:35;8.23;;;4.78;;
83895;SDS011;74045;42.812;74.638;2024-03-23T02:33:01;7.53;;;3.70;;
83895;SDS011;74045;42.812;74.638;2024-03-23T02:35:29;6.95;;;3.97;;
83895;SDS011;74045;42.812;74.638;2024-03-23T02:37:55;10.57;;;4.90;;
83895;SDS011;74045;42.812;74.638;2024-03-23T02:40:24;9.43;;;4.80;;
83895;SDS011;74045;42.812;74.638;2024-03-23T02:42:50;7.97;;;4.22;;
83895;SDS011;74045;42.812;74.638;2024-03-23T02:45:16;7.05;;;3.70;;
83895;SDS011;74045;42.812;74.638;2024-03-23T02:47:42;9.98;;;4.30;;
83895;SDS011;74045;42.812;74.638;2024-03-23T02:50:08;10.55;;;3.85;;
83895;SDS011;74045;42.812;74.638;2024-03-23T02:52:34;8.15;;;3.13;;
83895;SDS011;74045;42.812;74.638;2024-03-23T02:55:01;5.63;;;3.22;;
83895;SDS011;74045;42.812;74.638;2024-03-23T02:57:28;6.72;;;3.15;;
83895;SDS011;74045;42.812;74.638;2024-03-23T02:59:54;7.65;;;3.83;;
83895;SDS011;74045;42.812;74.638;2024-03-23T03:02:19;7.82;;;3.88;;
83895;SDS011;74045;42.812;74.638;2024-03-23T03:04:45;7.32;;;3.83;;
83895;SDS011;74045;42.812;74.638;2024-03-23T03:07:11;7.63;;;4.30;;
83895;SDS011;74045;42.812;74.638;2024-03-23T03:09:37;7.20;;;4.03;;
83895;SDS011;74045;42.812;74.638;2024-03-23T03:12:04;8.57;;;4.10;;
83895;SDS011;74045;42.812;74.638;2024-03-23T03:14:33;9.05;;;3.63;;
83895;SDS011;74045;42.812;74.638;2024-03-23T03:17:00;9.25;;;3.58;;
83895;SDS011;74045;42.812;74.638;2024-03-23T03:19:26;6.03;;;3.42;;
83895;SDS011;74045;42.812;74.638;2024-03-23T03:21:52;8.32;;;3.92;;
83895;SDS011;74045;42.812;74.638;2024-03-23T03:24:18;7.30;;;2.70;;
83895;SDS011;74045;42.812;74.638;2024-03-23T03:26:43;5.60;;;2.80;;
83895;SDS011;74045;42.812;74.638;2024-03-23T03:29:09;5.50;;;2.78;;
83895;SDS011;74045;42.812;74.638;2024-03-23T03:31:37;5.05;;;2.80;;
83895;SDS011;74045;42.812;74.638;2024-03-23T03:34:03;3.92;;;1.95;;
83895;SDS011;74045;42.812;74.638;2024-03-23T03:36:28;3.17;;;1.60;;
83895;SDS011;74045;42.812;74.638;2024-03-23T03:38:54;5.00;;;1.88;;
83895;SDS011;74045;42.812;74.638;2024-03-23T03:41:20;3.90;;;1.75;;
83895;SDS011;74045;42.812;74.638;2024-03-23T03:43:46;2.97;;;1.52;;
83895;SDS011;74045;42.812;74.638;2024-03-23T03:46:13;5.30;;;1.88;;
83895;SDS011;74045;42.812;74.638;2024-03-23T03:48:39;3.63;;;1.63;;
83895;SDS011;74045;42.812;74.638;2024-03-23T03:51:05;5.00;;;1.60;;
83895;SDS011;74045;42.812;74.638;2024-03-23T03:53:30;2.72;;;1.48;;
83895;SDS011;74045;42.812;74.638;2024-03-23T03:55:56;3.35;;;1.33;;
83895;SDS011;74045;42.812;74.638;2024-03-23T03:58:26;3.33;;;1.15;;
83895;SDS011;74045;42.812;74.638;2024-03-23T04:00:51;2.40;;;1.20;;
83895;SDS011;74045;42.812;74.638;2024-03-23T04:03:17;2.10;;;1.15;;
83895;SDS011;74045;42.812;74.638;2024-03-23T04:05:43;2.90;;;1.60;;
83895;SDS011;74045;42.812;74.638;2024-03-23T04:08:08;2.85;;;1.48;;
83895;SDS011;74045;42.812;74.638;2024-03-23T04:10:34;2.72;;;1.50;;
83895;SDS011;74045;42.812;74.638;2024-03-23T04:13:00;3.90;;;1.70;;
83895;SDS011;74045;42.812;74.638;2024-03-23T04:15:26;4.50;;;1.42;;
83895;SDS011;74045;42.812;74.638;2024-03-23T04:17:52;2.67;;;1.30;;
83895;SDS011;74045;42.812;74.638;2024-03-23T04:20:18;2.78;;;1.50;;
83895;SDS011;74045;42.812;74.638;2024-03-23T04:22:44;3.78;;;1.77;;
83895;SDS011;74045;42.812;74.638;2024-03-23T04:25:09;2.70;;;1.40;;
83895;SDS011;74045;42.812;74.638;2024-03-23T04:27:38;2.15;;;1.20;;
83895;SDS011;74045;42.812;74.638;2024-03-23T04:30:04;2.60;;;0.80;;
83895;SDS011;74045;42.812;74.638;2024-03-23T04:32:35;0.80;;;0.38;;
83895;SDS011;74045;42.812;74.638;2024-03-23T04:35:01;0.68;;;0.40;;
83895;SDS011;74045;42.812;74.638;2024-03-23T04:37:31;1.67;;;0.65;;
83895;SDS011;74045;42.812;74.638;2024-03-23T04:39:58;1.58;;;0.38;;
83895;SDS011;74045;42.812;74.638;2024-03-23T04:42:24;0.47;;;0.40;;
83895;SDS011;74045;42.812;74.638;2024-03-23T04:44:50;0.73;;;0.40;;
83895;SDS011;74045;42.812;74.638;2024-03-23T04:47:16;0.40;;;0.20;;
83895;SDS011;74045;42.812;74.638;2024-03-23T04:49:42;1.60;;;0.38;;
83895;SDS011;74045;42.812;74.638;2024-03-23T04:52:07;0.90;;;0.40;;
83895;SDS011;74045;42.812;74.638;2024-03-23T04:54:33;1.55;;;0.40;;
83895;SDS011;74045;42.812;74.638;2024-03-23T04:56:58;0.65;;;0.32;;
83895;SDS011;74045;42.812;74.638;2024-03-23T04:59:25;3.95;;;0.60;;
83895;SDS011;74045;42.812;74.638;2024-03-23T05:01:50;0.52;;;0.35;;
83895;SDS011;74045;42.812;74.638;2024-03-23T05:04:16;1.30;;;0.50;;
83895;SDS011;74045;42.812;74.638;2024-03-23T05:06:41;3.28;;;0.73;;
83895;SDS011;74045;42.812;74.638;2024-03-23T05:09:07;1.63;;;0.38;;
83895;SDS011;74045;42.812;74.638;2024-03-23T05:11:37;0.30;;;0.30;;
83895;SDS011;74045;42.812;74.638;2024-03-23T05:14:03;0.30;;;0.22;;
83895;SDS011;74045;42.812;74.638;2024-03-23T05:16:29;0.28;;;0.20;;
83895;SDS011;74045;42.812;74.638;2024-03-23T05:18:55;0.93;;;0.32;;
83895;SDS011;74045;42.812;74.638;2024-03-23T05:21:20;0.63;;;0.40;;
83895;SDS011;74045;42.812;74.638;2024-03-23T05:23:46;1.63;;;0.65;;
83895;SDS011;74045;42.812;74.638;2024-03-23T05:26:13;1.48;;;0.65;;
83895;SDS011;74045;42.812;74.638;2024-03-23T05:28:39;1.45;;;0.70;;
83895;SDS011;74045;42.812;74.638;2024-03-23T05:31:04;2.60;;;0.70;;
83895;SDS011;74045;42.812;74.638;2024-03-23T05:33:30;1.75;;;0.50;;
83895;SDS011;74045;42.812;74.638;2024-03-23T05:36:01;1.70;;;1.08;;
83895;SDS011;74045;42.812;74.638;2024-03-23T05:38:27;2.08;;;0.77;;
83895;SDS011;74045;42.812;74.638;2024-03-23T05:40:56;1.23;;;0.70;;
83895;SDS011;74045;42.812;74.638;2024-03-23T05:43:23;2.05;;;1.10;;
83895;SDS011;74045;42.812;74.638;2024-03-23T05:45:55;2.95;;;1.70;;
83895;SDS011;74045;42.812;74.638;2024-03-23T05:48:22;2.15;;;1.00;;
83895;SDS011;74045;42.812;74.638;2024-03-23T05:50:49;2.85;;;1.10;;
83895;SDS011;74045;42.812;74.638;2024-03-23T05:53:18;2.03;;;1.33;;
83895;SDS011;74045;42.812;74.638;2024-03-23T05:55:47;2.55;;;1.00;;
83895;SDS011;74045;42.812;74.638;2024-03-23T05:58:14;6.32;;;4.20;;
83895;SDS011;74045;42.812;74.638;2024-03-23T06:00:41;1.70;;;0.90;;
83895;SDS011;74045;42.812;74.638;2024-03-23T06:03:10;1.33;;;0.85;;
83895;SDS011;74045;42.812;74.638;2024-03-23T06:05:36;4.93;;;2.72;;
83895;SDS011;74045;42.812;74.638;2024-03-23T06:08:04;3.50;;;1.38;;
83895;SDS011;74045;42.812;74.638;2024-03-23T06:10:30;1.70;;;0.93;;
83895;SDS011;74045;42.812;74.638;2024-03-23T06:12:56;2.25;;;1.13;;
83895;SDS011;74045;42.812;74.638;2024-03-23T06:15:24;2.78;;;1.10;;
83895;SDS011;74045;42.812;74.638;2024-03-23T06:17:50;0.90;;;0.52;;
83895;SDS011;74045;42.812;74.638;2024-03-23T06:20:15;1.73;;;1.02;;
83895;SDS011;74045;42.812;74.638;2024-03-23T06:22:41;1.92;;;0.80;;
83895;SDS011;74045;42.812;74.638;2024-03-23T06:25:07;1.50;;;0.80;;
83895;SDS011;74045;42.812;74.638;2024-03-23T06:27:33;2.50;;;1.40;;
83895;SDS011;74045;42.812;74.638;2024-03-23T06:29:59;1.77;;;1.02;;
83895;SDS011;74045;42.812;74.638;2024-03-23T06:32:25;5.53;;;0.80;;
83895;SDS011;74045;42.812;74.638;2024-03-23T06:34:51;2.67;;;1.40;;
83895;SDS011;74045;42.812;74.638;2024-03-23T06:37:16;3.35;;;0.93;;
83895;SDS011;74045;42.812;74.638;2024-03-23T06:39:42;3.25;;;1.02;;
83895;SDS011;74045;42.812;74.638;2024-03-23T06:42:08;3.65;;;0.93;;
83895;SDS011;74045;42.812;74.638;2024-03-23T06:44:34;1.98;;;1.02;;
83895;SDS011;74045;42.812;74.638;2024-03-23T06:46:59;2.22;;;1.00;;
83895;SDS011;74045;42.812;74.638;2024-03-23T06:49:25;1.25;;;0.70;;
83895;SDS011;74045;42.812;74.638;2024-03-23T06:51:51;3.38;;;1.10;;
83895;SDS011;74045;42.812;74.638;2024-03-23T06:54:17;1.40;;;0.77;;
83895;SDS011;74045;42.812;74.638;2024-03-23T06:56:44;2.28;;;0.90;;
83895;SDS011;74045;42.812;74.638;2024-03-23T06:59:10;1.60;;;0.98;;
83895;SDS011;74045;42.812;74.638;2024-03-23T07:01:35;1.33;;;0.65;;
83895;SDS011;74045;42.812;74.638;2024-03-23T07:04:01;2.40;;;1.40;;
83895;SDS011;74045;42.812;74.638;2024-03-23T07:06:29;2.35;;;1.00;;
83895;SDS011;74045;42.812;74.638;2024-03-23T07:08:55;2.33;;;1.10;;
83895;SDS011;74045;42.812;74.638;2024-03-23T07:11:21;2.58;;;1.00;;
83895;SDS011;74045;42.812;74.638;2024-03-23T07:13:50;1.50;;;0.80;;
83895;SDS011;74045;42.812;74.638;2024-03-23T07:16:17;1.40;;;0.77;;
83895;SDS011;74045;42.812;74.638;2024-03-23T07:18:42;1.38;;;0.85;;
83895;SDS011;74045;42.812;74.638;2024-03-23T07:21:08;2.97;;;0.98;;
83895;SDS011;74045;42.812;74.638;2024-03-23T07:23:34;2.13;;;0.90;;
83895;SDS011;74045;42.812;74.638;2024-03-23T07:26:00;1.80;;;0.90;;
83895;SDS011;74045;42.812;74.638;2024-03-23T07:28:27;1.50;;;0.80;;
83895;SDS011;74045;42.812;74.638;2024-03-23T07:31:06;3.83;;;1.35;;
83895;SDS011;74045;42.812;74.638;2024-03-23T07:33:36;2.20;;;0.98;;
83895;SDS011;74045;42.812;74.638;2024-03-23T07:36:06;11.65;;;2.08;;
83895;SDS011;74045;42.812;74.638;2024-03-23T07:38:32;4.57;;;0.90;;
83895;SDS011;74045;42.812;74.638;2024-03-23T07:41:08;3.15;;;1.60;;
83895;SDS011;74045;42.812;74.638;2024-03-23T07:43:35;5.65;;;1.40;;
83895;SDS011;74045;42.812;74.638;2024-03-23T07:46:01;5.43;;;1.50;;
83895;SDS011;74045;42.812;74.638;2024-03-23T07:48:28;4.38;;;1.67;;
83895;SDS011;74045;42.812;74.638;2024-03-23T07:53:30;7.53;;;1.38;;
83895;SDS011;74045;42.812;74.638;2024-03-23T07:55:57;12.73;;;2.40;;
83895;SDS011;74045;42.812;74.638;2024-03-23T07:58:25;10.38;;;2.65;;
83895;SDS011;74045;42.812;74.638;2024-03-23T08:00:52;9.07;;;2.50;;
83895;SDS011;74045;42.812;74.638;2024-03-23T08:03:18;18.85;;;3.80;;
83895;SDS011;74045;42.812;74.638;2024-03-23T08:05:45;8.60;;;2.45;;
83895;SDS011;74045;42.812;74.638;2024-03-23T08:08:11;5.82;;;1.40;;
83895;SDS011;74045;42.812;74.638;2024-03-23T08:10:37;11.93;;;2.90;;
83895;SDS011;74045;42.812;74.638;2024-03-23T08:13:16;13.30;;;2.80;;
83895;SDS011;74045;42.812;74.638;2024-03-23T08:15:41;11.45;;;2.58;;
83895;SDS011;74045;42.812;74.638;2024-03-23T08:18:07;20.50;;;3.28;;
83895;SDS011;74045;42.812;74.638;2024-03-23T08:20:33;11.13;;;2.50;;
83895;SDS011;74045;42.812;74.638;2024-03-23T08:22:59;14.68;;;3.25;;
83895;SDS011;74045;42.812;74.638;2024-03-23T08:25:25;14.60;;;2.90;;
83895;SDS011;74045;42.812;74.638;2024-03-23T08:27:51;16.63;;;3.75;;
83895;SDS011;74045;42.812;74.638;2024-03-23T08:30:17;19.20;;;2.92;;
83895;SDS011;74045;42.812;74.638;2024-03-23T08:32:43;14.02;;;2.60;;
83895;SDS011;74045;42.812;74.638;2024-03-23T08:35:09;16.38;;;2.92;;
83895;SDS011;74045;42.812;74.638;2024-03-23T08:37:35;19.67;;;3.17;;
83895;SDS011;74045;42.812;74.638;2024-03-23T08:40:00;13.90;;;2.70;;
83895;SDS011;74045;42.812;74.638;2024-03-23T08:42:27;7.97;;;2.55;;
83895;SDS011;74045;42.812;74.638;2024-03-23T08:44:52;9.48;;;2.65;;
83895;SDS011;74045;42.812;74.638;2024-03-23T08:47:18;9.40;;;2.53;;
83895;SDS011;74045;42.812;74.638;2024-03-23T08:49:44;7.57;;;2.35;;
83895;SDS011;74045;42.812;74.638;2024-03-23T08:52:10;5.78;;;2.28;;
83895;SDS011;74045;42.812;74.638;2024-03-23T08:54:35;9.25;;;2.58;;
83895;SDS011;74045;42.812;74.638;2024-03-23T08:57:01;16.25;;;2.97;;
83895;SDS011;74045;42.812;74.638;2024-03-23T08:59:27;11.25;;;3.13;;
83895;SDS011;74045;42.812;74.638;2024-03-23T09:01:52;7.03;;;2.20;;
83895;SDS011;74045;42.812;74.638;2024-03-23T09:04:19;9.05;;;2.10;;
83895;SDS011;74045;42.812;74.638;2024-03-23T09:06:44;5.60;;;1.92;;
83895;SDS011;74045;42.812;74.638;2024-03-23T09:09:10;5.68;;;2.25;;
83895;SDS011;74045;42.812;74.638;2024-03-23T09:11:36;4.95;;;2.03;;
83895;SDS011;74045;42.812;74.638;2024-03-23T09:14:02;3.97;;;2.08;;
83895;SDS011;74045;42.812;74.638;2024-03-23T09:16:28;2.92;;;1.70;;
83895;SDS011;74045;42.812;74.638;2024-03-23T09:18:54;4.03;;;2.00;;
83895;SDS011;74045;42.812;74.638;2024-03-23T09:21:20;6.70;;;1.90;;
83895;SDS011;74045;42.812;74.638;2024-03-23T09:23:45;5.07;;;2.05;;
83895;SDS011;74045;42.812;74.638;2024-03-23T09:26:12;5.53;;;1.98;;
83895;SDS011;74045;42.812;74.638;2024-03-23T09:28:38;2.95;;;1.70;;
83895;SDS011;74045;42.812;74.638;2024-03-23T09:31:04;6.40;;;1.67;;
83895;SDS011;74045;42.812;74.638;2024-03-23T09:33:30;2.40;;;1.52;;
83895;SDS011;74045;42.812;74.638;2024-03-23T09:35:56;2.85;;;1.48;;
83895;SDS011;74045;42.812;74.638;2024-03-23T09:38:22;3.05;;;1.85;;
83895;SDS011;74045;42.812;74.638;2024-03-23T09:40:52;3.97;;;1.48;;
83895;SDS011;74045;42.812;74.638;2024-03-23T09:43:19;5.55;;;1.63;;
83895;SDS011;74045;42.812;74.638;2024-03-23T09:45:45;2.45;;;1.20;;
83895;SDS011;74045;42.812;74.638;2024-03-23T09:48:11;2.88;;;1.38;;
83895;SDS011;74045;42.812;74.638;2024-03-23T09:53:04;4.50;;;1.48;;
83895;SDS011;74045;42.812;74.638;2024-03-23T09:55:32;2.97;;;1.27;;
83895;SDS011;74045;42.812;74.638;2024-03-23T09:57:57;3.40;;;1.60;;
83895;SDS011;74045;42.812;74.638;2024-03-23T10:00:23;4.28;;;1.55;;
83895;SDS011;74045;42.812;74.638;2024-03-23T10:02:49;3.05;;;1.63;;
83895;SDS011;74045;42.812;74.638;2024-03-23T10:05:21;6.22;;;1.30;;
83895;SDS011;74045;42.812;74.638;2024-03-23T10:07:51;2.72;;;1.30;;
83895;SDS011;74045;42.812;74.638;2024-03-23T10:10:17;3.33;;;1.60;;
83895;SDS011;74045;42.812;74.638;2024-03-23T10:12:44;2.35;;;1.13;;
83895;SDS011;74045;42.812;74.638;2024-03-23T10:15:15;2.53;;;1.45;;
83895;SDS011;74045;42.812;74.638;2024-03-23T10:17:44;5.05;;;1.92;;
83895;SDS011;74045;42.812;74.638;2024-03-23T10:20:10;5.55;;;1.75;;
83895;SDS011;74045;42.812;74.638;2024-03-23T10:22:39;3.10;;;1.35;;
83895;SDS011;74045;42.812;74.638;2024-03-23T10:25:08;4.72;;;1.50;;
83895;SDS011;74045;42.812;74.638;2024-03-23T10:27:35;3.35;;;1.30;;
83895;SDS011;74045;42.812;74.638;2024-03-23T10:30:11;3.75;;;1.48;;
83895;SDS011;74045;42.812;74.638;2024-03-23T10:32:39;3.63;;;1.85;;
83895;SDS011;74045;42.812;74.638;2024-03-23T10:35:18;3.60;;;1.65;;
83895;SDS011;74045;42.812;74.638;2024-03-23T10:37:48;4.90;;;1.50;;
83895;SDS011;74045;42.812;74.638;2024-03-23T10:40:17;5.53;;;1.90;;
83895;SDS011;74045;42.812;74.638;2024-03-23T10:42:46;8.48;;;1.65;;
83895;SDS011;74045;42.812;74.638;2024-03-23T10:45:12;7.97;;;1.75;;
83895;SDS011;74045;42.812;74.638;2024-03-23T10:47:37;5.85;;;1.58;;
83895;SDS011;74045;42.812;74.638;2024-03-23T10:50:03;4.93;;;1.55;;
83895;SDS011;74045;42.812;74.638;2024-03-23T10:52:35;6.70;;;2.00;;
83895;SDS011;74045;42.812;74.638;2024-03-23T10:55:04;6.85;;;1.70;;
83895;SDS011;74045;42.812;74.638;2024-03-23T10:57:34;5.93;;;1.50;;
83895;SDS011;74045;42.812;74.638;2024-03-23T11:00:11;9.95;;;2.85;;
83895;SDS011;74045;42.812;74.638;2024-03-23T11:02:37;15.45;;;2.95;;
83895;SDS011;74045;42.812;74.638;2024-03-23T11:07:52;12.68;;;3.15;;
83895;SDS011;74045;42.812;74.638;2024-03-23T11:12:54;9.90;;;2.22;;
83895;SDS011;74045;42.812;74.638;2024-03-23T11:15:21;12.45;;;2.13;;
83895;SDS011;74045;42.812;74.638;2024-03-23T11:18:03;16.10;;;2.53;;
83895;SDS011;74045;42.812;74.638;2024-03-23T11:20:32;12.88;;;2.55;;
83895;SDS011;74045;42.812;74.638;2024-03-23T11:22:59;15.73;;;3.42;;
83895;SDS011;74045;42.812;74.638;2024-03-23T11:25:26;14.15;;;2.42;;
83895;SDS011;74045;42.812;74.638;2024-03-23T11:27:53;8.35;;;2.58;;
83895;SDS011;74045;42.812;74.638;2024-03-23T11:32:52;12.57;;;3.08;;
83895;SDS011;74045;42.812;74.638;2024-03-23T11:38:02;8.55;;;4.03;;
83895;SDS011;74045;42.812;74.638;2024-03-23T11:43:16;9.85;;;4.20;;
83895;SDS011;74045;42.812;74.638;2024-03-23T11:45:44;9.13;;;4.15;;
83895;SDS011;74045;42.812;74.638;2024-03-23T11:48:12;10.55;;;4.15;;
83895;SDS011;74045;42.812;74.638;2024-03-23T11:50:42;8.50;;;3.90;;
83895;SDS011;74045;42.812;74.638;2024-03-23T11:53:18;12.68;;;3.42;;
83895;SDS011;74045;42.812;74.638;2024-03-23T11:55:52;8.82;;;2.78;;
83895;SDS011;74045;42.812;74.638;2024-03-23T11:58:19;4.90;;;2.22;;
83895;SDS011;74045;42.812;74.638;2024-03-23T12:00:50;4.75;;;2.72;;
83895;SDS011;74045;42.812;74.638;2024-03-23T12:03:21;5.20;;;2.22;;
83895;SDS011;74045;42.812;74.638;2024-03-23T12:05:51;5.70;;;2.28;;
83895;SDS011;74045;42.812;74.638;2024-03-23T12:08:24;8.15;;;2.28;;
83895;SDS011;74045;42.812;74.638;2024-03-23T12:11:15;7.07;;;2.47;;
83895;SDS011;74045;42.812;74.638;2024-03-23T12:13:45;9.23;;;2.17;;
83895;SDS011;74045;42.812;74.638;2024-03-23T12:16:12;5.95;;;2.00;;
83895;SDS011;74045;42.812;74.638;2024-03-23T12:18:42;6.85;;;1.90;;
83895;SDS011;74045;42.812;74.638;2024-03-23T12:21:09;6.00;;;1.83;;
83895;SDS011;74045;42.812;74.638;2024-03-23T12:23:35;4.13;;;1.70;;
83895;SDS011;74045;42.812;74.638;2024-03-23T12:26:04;5.22;;;2.15;;
83895;SDS011;74045;42.812;74.638;2024-03-23T12:28:29;5.28;;;2.00;;
83895;SDS011;74045;42.812;74.638;2024-03-23T12:30:55;4.90;;;1.60;;
83895;SDS011;74045;42.812;74.638;2024-03-23T12:33:21;5.60;;;1.90;;
83895;SDS011;74045;42.812;74.638;2024-03-23T12:35:50;7.25;;;1.75;;
83895;SDS011;74045;42.812;74.638;2024-03-23T12:38:16;3.15;;;1.50;;
83895;SDS011;74045;42.812;74.638;2024-03-23T12:40:46;5.13;;;1.70;;
83895;SDS011;74045;42.812;74.638;2024-03-23T12:43:15;4.10;;;1.42;;
83895;SDS011;74045;42.812;74.638;2024-03-23T12:45:49;3.88;;;1.80;;
83895;SDS011;74045;42.812;74.638;2024-03-23T12:48:15;5.60;;;1.70;;
83895;SDS011;74045;42.812;74.638;2024-03-23T12:50:41;6.63;;;1.60;;
83895;SDS011;74045;42.812;74.638;2024-03-23T12:53:07;4.45;;;1.55;;
83895;SDS011;74045;42.812;74.638;2024-03-23T12:55:35;7.88;;;2.15;;
83895;SDS011;74045;42.812;74.638;2024-03-23T12:58:01;9.90;;;2.17;;
83895;SDS011;74045;42.812;74.638;2024-03-23T13:00:28;4.70;;;2.20;;
83895;SDS011;74045;42.812;74.638;2024-03-23T13:02:53;7.80;;;2.58;;
83895;SDS011;74045;42.812;74.638;2024-03-23T13:05:19;5.15;;;2.60;;
83895;SDS011;74045;42.812;74.638;2024-03-23T13:07:45;9.20;;;3.38;;
83895;SDS011;74045;42.812;74.638;2024-03-23T13:10:10;9.63;;;3.17;;
83895;SDS011;74045;42.812;74.638;2024-03-23T13:12:36;5.43;;;2.63;;
83895;SDS011;74045;42.812;74.638;2024-03-23T13:15:01;7.20;;;2.45;;
83895;SDS011;74045;42.812;74.638;2024-03-23T13:17:27;10.35;;;2.50;;
83895;SDS011;74045;42.812;74.638;2024-03-23T13:19:54;15.73;;;4.00;;
83895;SDS011;74045;42.812;74.638;2024-03-23T13:22:21;11.48;;;3.92;;
83895;SDS011;74045;42.812;74.638;2024-03-23T13:24:47;12.10;;;4.20;;
83895;SDS011;74045;42.812;74.638;2024-03-23T13:27:12;17.55;;;4.90;;
83895;SDS011;74045;42.812;74.638;2024-03-23T13:29:38;13.88;;;4.90;;
83895;SDS011;74045;42.812;74.638;2024-03-23T13:32:04;24.35;;;5.90;;
83895;SDS011;74045;42.812;74.638;2024-03-23T13:34:31;19.10;;;4.80;;
83895;SDS011;74045;42.812;74.638;2024-03-23T13:36:58;23.88;;;5.70;;
83895;SDS011;74045;42.812;74.638;2024-03-23T13:39:24;13.32;;;5.50;;
83895;SDS011;74045;42.812;74.638;2024-03-23T13:41:50;15.32;;;5.43;;
83895;SDS011;74045;42.812;74.638;2024-03-23T13:44:16;22.15;;;5.93;;
83895;SDS011;74045;42.812;74.638;2024-03-23T13:46:42;26.50;;;7.30;;
83895;SDS011;74045;42.812;74.638;2024-03-23T13:49:13;23.23;;;6.20;;
83895;SDS011;74045;42.812;74.638;2024-03-23T13:51:46;15.30;;;5.65;;
83895;SDS011;74045;42.812;74.638;2024-03-23T13:54:12;26.25;;;8.40;;
83895;SDS011;74045;42.812;74.638;2024-03-23T13:56:38;24.88;;;7.50;;
83895;SDS011;74045;42.812;74.638;2024-03-23T13:59:04;20.33;;;6.75;;
83895;SDS011;74045;42.812;74.638;2024-03-23T14:01:29;20.85;;;7.03;;
83895;SDS011;74045;42.812;74.638;2024-03-23T14:03:55;23.10;;;8.60;;
83895;SDS011;74045;42.812;74.638;2024-03-23T14:06:21;20.77;;;8.00;;
83895;SDS011;74045;42.812;74.638;2024-03-23T14:08:49;23.50;;;8.05;;
83895;SDS011;74045;42.812;74.638;2024-03-23T14:11:17;16.23;;;7.93;;
83895;SDS011;74045;42.812;74.638;2024-03-23T14:13:43;22.77;;;9.32;;
83895;SDS011;74045;42.812;74.638;2024-03-23T14:16:09;32.40;;;11.40;;
83895;SDS011;74045;42.812;74.638;2024-03-23T14:18:35;24.60;;;10.48;;
83895;SDS011;74045;42.812;74.638;2024-03-23T14:21:01;29.55;;;11.85;;
83895;SDS011;74045;42.812;74.638;2024-03-23T14:23:28;25.40;;;12.15;;
83895;SDS011;74045;42.812;74.638;2024-03-23T14:25:55;25.23;;;12.65;;
83895;SDS011;74045;42.812;74.638;2024-03-23T14:28:21;29.77;;;12.27;;
83895;SDS011;74045;42.812;74.638;2024-03-23T14:30:48;33.05;;;13.48;;
83895;SDS011;74045;42.812;74.638;2024-03-23T14:33:15;41.10;;;13.85;;
83895;SDS011;74045;42.812;74.638;2024-03-23T14:35:41;29.30;;;13.65;;
83895;SDS011;74045;42.812;74.638;2024-03-23T14:38:07;31.65;;;12.02;;
83895;SDS011;74045;42.812;74.638;2024-03-23T14:40:33;27.77;;;12.85;;
83895;SDS011;74045;42.812;74.638;2024-03-23T14:42:59;30.38;;;13.50;;
83895;SDS011;74045;42.812;74.638;2024-03-23T14:45:24;41.38;;;17.85;;
83895;SDS011;74045;42.812;74.638;2024-03-23T14:47:51;28.02;;;13.00;;
83895;SDS011;74045;42.812;74.638;2024-03-23T14:50:17;26.25;;;12.50;;
83895;SDS011;74045;42.812;74.638;2024-03-23T14:52:46;32.80;;;13.75;;
83895;SDS011;74045;42.812;74.638;2024-03-23T14:55:12;35.75;;;13.68;;
83895;SDS011;74045;42.812;74.638;2024-03-23T14:57:38;26.63;;;11.82;;
83895;SDS011;74045;42.812;74.638;2024-03-23T15:00:08;27.98;;;9.85;;
83895;SDS011;74045;42.812;74.638;2024-03-23T15:02:38;15.77;;;7.80;;
83895;SDS011;74045;42.812;74.638;2024-03-23T15:05:05;13.98;;;7.15;;
83895;SDS011;74045;42.812;74.638;2024-03-23T15:07:35;15.63;;;7.32;;
83895;SDS011;74045;42.812;74.638;2024-03-23T15:10:04;15.52;;;7.18;;
83895;SDS011;74045;42.812;74.638;2024-03-23T15:12:36;11.50;;;6.45;;
83895;SDS011;74045;42.812;74.638;2024-03-23T15:15:02;12.52;;;6.68;;
83895;SDS011;74045;42.812;74.638;2024-03-23T15:17:27;13.93;;;5.68;;
83895;SDS011;74045;42.812;74.638;2024-03-23T15:19:53;12.70;;;5.47;;
83895;SDS011;74045;42.812;74.638;2024-03-23T15:22:19;9.88;;;4.75;;
83895;SDS011;74045;42.812;74.638;2024-03-23T15:24:46;13.40;;;5.43;;
83895;SDS011;74045;42.812;74.638;2024-03-23T15:27:12;10.18;;;4.90;;
83895;SDS011;74045;42.812;74.638;2024-03-23T15:29:38;9.60;;;3.85;;
83895;SDS011;74045;42.812;74.638;2024-03-23T15:32:03;8.73;;;3.92;;
83895;SDS011;74045;42.812;74.638;2024-03-23T15:34:29;11.40;;;4.43;;
83895;SDS011;74045;42.812;74.638;2024-03-23T15:36:55;11.82;;;3.63;;
83895;SDS011;74045;42.812;74.638;2024-03-23T15:39:20;9.52;;;3.90;;